createdAt,value
2019-01-17T00:00:23.404Z,5.40
2019-01-17T00:03:05.505Z,5.40
2019-01-17T00:06:02.314Z,5.40
2019-01-17T00:09:20.717Z,5.40
2019-01-17T00:12:02.213Z,5.50
2019-01-17T00:14:50.748Z,5.40
2019-01-17T00:17:41.064Z,5.60
2019-01-17T00:20:45.436Z,5.60
2019-01-17T00:23:31.679Z,5.60
2019-01-17T00:26:31.523Z,5.60
2019-01-17T00:29:22.385Z,5.60
2019-01-17T00:32:22.731Z,5.50
2019-01-17T00:37:56.552Z,5.50
2019-01-17T00:40:43.178Z,5.50
2019-01-17T00:43:29.528Z,5.50
2019-01-17T00:46:22.346Z,5.50
2019-01-17T00:48:59.012Z,5.50
2019-01-17T00:51:45.454Z,5.50
2019-01-17T00:54:42.399Z,5.50
2019-01-17T00:57:28.801Z,5.50
2019-01-17T01:00:19.760Z,5.60
2019-01-17T01:03:10.846Z,5.60
2019-01-17T01:06:07.668Z,5.60
2019-01-17T01:09:01.353Z,5.50
2019-01-17T01:11:49.369Z,5.30
2019-01-17T01:14:56.896Z,5.30
2019-01-17T01:17:35.214Z,5.30
2019-01-17T01:20:29.585Z,5.30
2019-01-17T01:23:23.519Z,5.40
2019-01-17T01:29:12.652Z,5.80
2019-01-17T01:31:51.986Z,5.90
2019-01-17T01:34:44.103Z,6.10
2019-01-17T01:37:30.408Z,6.20
2019-01-17T01:40:16.996Z,6.30
2019-01-17T01:43:04.754Z,6.50
2019-01-17T01:49:09.198Z,6.50
2019-01-17T01:52:12.161Z,6.50
2019-01-17T01:54:52.677Z,6.60
2019-01-17T01:57:21.949Z,6.60
2019-01-17T01:59:51.002Z,6.70
2019-01-17T02:02:19.732Z,6.70
2019-01-17T02:05:00.457Z,6.60
2019-01-17T02:07:29.245Z,6.70
2019-01-17T02:09:57.921Z,6.70
2019-01-17T02:12:26.742Z,6.50
2019-01-17T02:15:04.768Z,6.60
2019-01-17T02:17:33.558Z,6.50
2019-01-17T02:20:02.435Z,6.50
2019-01-17T02:22:31.278Z,6.50
2019-01-17T02:25:08.935Z,6.50
2019-01-17T02:27:37.713Z,6.30
2019-01-17T02:30:06.864Z,6.30
2019-01-17T02:32:38.502Z,6.10
2019-01-17T02:35:16.343Z,5.70
2019-01-17T02:37:45.032Z,5.90
2019-01-17T02:40:13.826Z,5.90
2019-01-17T02:42:42.644Z,5.90
2019-01-17T02:45:20.314Z,6.10
2019-01-17T02:47:49.111Z,5.90
2019-01-17T02:50:17.957Z,6.10
2019-01-17T02:52:46.950Z,6.20
2019-01-17T02:55:24.559Z,6.10
2019-01-17T02:57:53.719Z,6.20
2019-01-17T03:00:22.459Z,6.10
2019-01-17T03:02:52.932Z,6.20
2019-01-17T03:05:30.877Z,6.40
2019-01-17T03:07:59.825Z,6.50
2019-01-17T03:10:30.182Z,6.70
2019-01-17T03:12:59.097Z,6.60
2019-01-17T03:15:37.335Z,6.70
2019-01-17T03:18:06.147Z,6.20
2019-01-17T03:20:34.887Z,6.20
2019-01-17T03:23:03.628Z,6.30
2019-01-17T03:25:41.745Z,6.20
2019-01-17T03:28:10.643Z,5.90
2019-01-17T03:30:39.654Z,5.80
2019-01-17T03:33:08.486Z,6.10
2019-01-17T03:35:46.345Z,5.90
2019-01-17T03:38:15.320Z,6.10
2019-01-17T03:40:44.434Z,6.20
2019-01-17T03:43:13.438Z,6.20
2019-01-17T03:45:52.566Z,6.30
2019-01-17T03:48:21.403Z,6.40
2019-01-17T03:50:50.692Z,6.50
2019-01-17T03:53:19.542Z,6.70
2019-01-17T03:55:57.704Z,6.70
2019-01-17T03:58:26.468Z,6.60
2019-01-17T04:00:55.459Z,6.70
2019-01-17T04:03:24.270Z,6.60
2019-01-17T04:06:01.964Z,6.60
2019-01-17T04:08:30.751Z,6.60
2019-01-17T04:10:59.529Z,6.80
2019-01-17T04:13:28.327Z,6.90
2019-01-17T04:16:07.533Z,6.80
2019-01-17T04:18:36.529Z,6.80
2019-01-17T04:21:05.407Z,6.90
2019-01-17T04:23:34.133Z,6.90
2019-01-17T04:26:14.751Z,6.90
2019-01-17T04:28:43.475Z,7.00
2019-01-17T04:31:12.382Z,7.50
2019-01-17T04:33:41.119Z,7.60
2019-01-17T04:36:18.806Z,7.90
2019-01-17T04:38:47.571Z,8.10
2019-01-17T04:41:16.278Z,8.30
2019-01-17T04:43:45.009Z,8.30
2019-01-17T04:46:22.659Z,8.10
2019-01-17T04:48:51.430Z,8.20
2019-01-17T04:51:20.144Z,8.40
2019-01-17T04:53:48.836Z,8.60
2019-01-17T04:56:26.789Z,8.40
2019-01-17T04:58:55.539Z,8.30
2019-01-17T05:01:24.294Z,8.00
2019-01-17T05:03:53.660Z,7.70
2019-01-17T05:06:22.658Z,7.60
2019-01-17T05:08:52.003Z,7.70
2019-01-17T05:11:20.826Z,7.60
2019-01-17T05:13:49.537Z,7.30
2019-01-17T05:16:28.294Z,7.30
2019-01-17T05:18:57.076Z,7.50
2019-01-17T05:21:25.977Z,7.50
2019-01-17T05:23:54.858Z,7.60
2019-01-17T05:26:33.293Z,7.60
2019-01-17T05:29:02.302Z,7.50
2019-01-17T05:31:31.243Z,7.70
2019-01-17T05:34:00.129Z,7.90
2019-01-17T05:36:37.839Z,8.10
2019-01-17T05:39:07.684Z,8.10
2019-01-17T05:41:36.721Z,8.20
2019-01-17T05:44:05.613Z,8.40
2019-01-17T05:49:18.630Z,8.60
2019-01-17T05:51:47.427Z,8.60
2019-01-17T05:54:16.247Z,8.70
2019-01-17T05:56:54.027Z,8.60
2019-01-17T05:59:22.960Z,8.40
2019-01-17T06:01:51.949Z,8.30
2019-01-17T06:04:20.953Z,8.30
2019-01-17T06:06:58.724Z,8.20
2019-01-17T06:09:27.469Z,7.90
2019-01-17T06:11:56.225Z,7.50
2019-01-17T06:14:25.042Z,7.40
2019-01-17T06:17:03.082Z,7.50
2019-01-17T06:19:31.974Z,7.50
2019-01-17T06:22:00.757Z,7.50
2019-01-17T06:24:29.755Z,7.60
2019-01-17T06:27:07.570Z,7.50
2019-01-17T06:29:36.589Z,7.70
2019-01-17T06:32:05.653Z,7.90
2019-01-17T06:34:49.466Z,7.90
2019-01-17T06:37:18.239Z,7.80
2019-01-17T06:39:46.984Z,7.80
2019-01-17T06:42:15.728Z,7.80
2019-01-17T06:44:53.596Z,7.80
2019-01-17T06:47:22.445Z,7.70
2019-01-17T06:49:51.321Z,7.60
2019-01-17T06:52:20.318Z,7.60
2019-01-17T06:54:58.461Z,7.50
2019-01-17T06:57:27.284Z,7.40
2019-01-17T06:59:56.030Z,7.50
2019-01-17T07:02:24.819Z,7.30
2019-01-17T07:05:02.944Z,7.30
2019-01-17T07:07:32.089Z,7.30
2019-01-17T07:10:00.996Z,7.40
2019-01-17T07:12:29.980Z,7.40
2019-01-17T07:15:08.116Z,7.50
2019-01-17T07:17:37.037Z,7.60
2019-01-17T07:20:06.504Z,7.30
2019-01-17T07:22:35.369Z,7.30
2019-01-17T07:25:14.394Z,7.20
2019-01-17T07:27:43.543Z,7.40
2019-01-17T07:30:15.308Z,7.30
2019-01-17T07:32:44.536Z,7.20
2019-01-17T07:38:35.305Z,7.50
2019-01-17T07:41:04.582Z,7.50
2019-01-17T07:43:33.450Z,7.60
2019-01-17T07:46:11.358Z,7.70
2019-01-17T07:48:40.064Z,7.60
2019-01-17T07:51:08.808Z,7.40
2019-01-17T07:53:37.578Z,7.40
2019-01-17T07:56:15.740Z,7.40
2019-01-17T07:58:44.424Z,7.70
2019-01-17T08:01:15.012Z,7.80
2019-01-17T08:03:44.325Z,8.00
2019-01-17T08:06:22.232Z,8.10
2019-01-17T08:08:53.120Z,8.40
2019-01-17T08:11:22.374Z,8.50
2019-01-17T08:13:54.142Z,8.50
2019-01-17T08:16:23.164Z,8.50
2019-01-17T08:18:55.142Z,8.50
2019-01-17T08:21:23.875Z,8.40
2019-01-17T08:23:53.127Z,8.40
2019-01-17T08:26:31.085Z,8.60
2019-01-17T08:29:00.142Z,8.80
2019-01-17T08:31:31.071Z,9.00
2019-01-17T08:34:01.430Z,9.10
2019-01-17T08:36:39.389Z,8.90
2019-01-17T08:39:09.291Z,8.50
2019-01-17T08:41:38.817Z,8.30
2019-01-17T08:44:08.031Z,8.20
2019-01-17T08:46:46.228Z,8.50
2019-01-17T08:49:15.169Z,8.80
2019-01-17T08:51:44.098Z,8.80
2019-01-17T08:54:13.123Z,8.70
2019-01-17T08:56:51.305Z,9.00
2019-01-17T08:59:20.173Z,9.10
2019-01-17T09:01:48.894Z,9.10
2019-01-17T09:04:17.644Z,8.90
2019-01-17T09:07:07.901Z,8.60
2019-01-17T09:09:36.988Z,8.60
2019-01-17T09:12:08.589Z,8.60
2019-01-17T09:14:39.848Z,8.60
2019-01-17T09:17:17.654Z,8.80
2019-01-17T09:19:46.482Z,9.00
2019-01-17T09:22:15.457Z,9.20
2019-01-17T09:25:01.320Z,9.20
2019-01-17T09:27:30.103Z,9.10
2019-01-17T09:29:59.010Z,8.80
2019-01-17T09:32:29.546Z,8.70
2019-01-17T09:35:08.787Z,8.70
2019-01-17T09:37:40.652Z,8.60
2019-01-17T09:40:12.177Z,8.50
2019-01-17T09:42:41.029Z,8.60
2019-01-17T09:45:18.501Z,8.60
2019-01-17T09:47:47.662Z,8.60
2019-01-17T09:50:18.367Z,8.70
2019-01-17T09:52:47.288Z,8.70
2019-01-17T09:55:37.491Z,8.80
2019-01-17T09:58:07.098Z,8.90
2019-01-17T10:00:36.014Z,9.20
2019-01-17T10:03:04.969Z,9.30
2019-01-17T10:05:43.048Z,9.50
2019-01-17T10:08:14.014Z,9.80
2019-01-17T10:10:42.864Z,10.00
2019-01-17T10:13:11.631Z,10.10
2019-01-17T10:15:53.818Z,10.20
2019-01-17T10:19:06.081Z,10.30
2019-01-17T10:22:10.825Z,10.30
2019-01-17T10:25:18.020Z,10.00
2019-01-17T10:28:46.079Z,10.00
2019-01-17T10:31:48.169Z,9.90
2019-01-17T10:34:39.261Z,9.80
2019-01-17T10:41:10.670Z,9.70
2019-01-17T10:43:48.461Z,9.60
2019-01-17T10:46:51.912Z,9.30
2019-01-17T10:49:33.221Z,9.30
2019-01-17T10:52:51.235Z,9.60
2019-01-17T10:55:57.583Z,9.70
2019-01-17T10:58:35.557Z,9.40
2019-01-17T11:01:42.942Z,9.30
2019-01-17T11:04:25.100Z,9.10
2019-01-17T11:07:30.740Z,9.10
2019-01-17T11:10:22.951Z,9.10
2019-01-17T11:13:07.712Z,9.30
2019-01-17T11:16:02.302Z,8.80
2019-01-17T11:19:00.416Z,8.60
2019-01-17T11:22:07.809Z,8.50
2019-01-17T11:25:25.977Z,8.40
2019-01-17T11:28:21.285Z,8.30
2019-01-17T11:31:17.454Z,8.20
2019-01-17T11:34:30.449Z,8.20
2019-01-17T11:38:01.727Z,8.00
2019-01-17T11:40:56.505Z,8.30
2019-01-17T11:44:21.849Z,8.00
2019-01-17T11:47:45.262Z,8.10
2019-01-17T11:50:24.345Z,7.90
2019-01-17T11:53:19.638Z,8.10
2019-01-17T11:56:28.496Z,8.20
2019-01-17T11:59:33.024Z,7.90
2019-01-17T12:02:24.621Z,7.80
2019-01-17T12:04:52.173Z,8.00
2019-01-17T12:07:29.897Z,8.10
2019-01-17T12:09:58.800Z,8.10
2019-01-17T12:12:29.891Z,7.90
2019-01-17T12:14:59.544Z,7.80
2019-01-17T12:17:28.904Z,7.80
2019-01-17T12:19:58.570Z,7.70
2019-01-17T12:22:27.430Z,7.60
2019-01-17T12:24:56.150Z,7.50
2019-01-17T12:27:34.314Z,7.60
2019-01-17T12:30:03.086Z,7.80
2019-01-17T12:32:31.882Z,7.90
2019-01-17T12:35:00.790Z,7.90
2019-01-17T12:37:38.687Z,8.00
2019-01-17T12:40:09.022Z,8.10
2019-01-17T12:42:37.921Z,8.20
2019-01-17T12:45:07.213Z,8.30
2019-01-17T12:47:46.139Z,8.30
2019-01-17T12:50:18.936Z,8.50
2019-01-17T12:52:47.632Z,8.30
2019-01-17T12:55:16.495Z,8.40
2019-01-17T12:57:57.455Z,8.30
2019-01-17T13:00:26.251Z,8.30
2019-01-17T13:02:55.017Z,8.20
2019-01-17T13:05:38.688Z,8.20
2019-01-17T13:10:41.889Z,8.00
2019-01-17T13:13:10.979Z,8.20
2019-01-17T13:15:48.840Z,8.10
2019-01-17T13:18:17.645Z,8.00
2019-01-17T13:20:46.399Z,8.00
2019-01-17T13:23:15.384Z,8.00
2019-01-17T13:25:53.929Z,7.90
2019-01-17T13:28:22.795Z,8.20
2019-01-17T13:30:51.979Z,8.00
2019-01-17T13:33:23.886Z,7.90
2019-01-17T13:36:01.887Z,7.80
2019-01-17T13:38:30.680Z,7.70
2019-01-17T13:40:59.596Z,7.70
2019-01-17T13:43:28.465Z,7.80
2019-01-17T13:46:06.539Z,8.10
2019-01-17T13:48:35.445Z,8.00
2019-01-17T13:51:04.357Z,8.00
2019-01-17T13:53:33.243Z,8.00
2019-01-17T13:56:11.146Z,7.90
2019-01-17T13:58:39.929Z,7.80
2019-01-17T14:01:08.657Z,7.60
2019-01-17T14:03:37.437Z,7.80
2019-01-17T14:06:15.308Z,7.70
2019-01-17T14:08:44.309Z,7.90
2019-01-17T14:11:13.088Z,7.70
2019-01-17T14:13:42.010Z,7.80
2019-01-17T14:16:19.851Z,8.00
2019-01-17T14:18:48.551Z,7.90
2019-01-17T14:21:17.246Z,8.00
2019-01-17T14:23:46.335Z,7.90
2019-01-17T14:26:24.064Z,7.90
2019-01-17T14:28:53.122Z,7.90
2019-01-17T14:31:22.118Z,8.00
2019-01-17T14:33:51.049Z,7.90
2019-01-17T14:36:28.966Z,7.80
2019-01-17T14:38:57.916Z,7.60
2019-01-17T14:41:26.655Z,7.60
2019-01-17T14:43:55.485Z,7.60
2019-01-17T14:49:08.634Z,7.50
2019-01-17T14:51:38.154Z,7.40
2019-01-17T14:54:06.933Z,7.30
2019-01-17T14:59:19.231Z,7.40
2019-01-17T15:01:47.965Z,7.40
2019-01-17T15:04:17.137Z,7.50
2019-01-17T15:06:54.962Z,7.70
2019-01-17T15:09:23.697Z,7.80
2019-01-17T15:11:52.390Z,7.70
2019-01-17T15:14:21.233Z,7.40
2019-01-17T15:17:02.115Z,7.30
2019-01-17T15:19:30.925Z,7.20
2019-01-17T15:22:02.091Z,7.30
2019-01-17T15:24:30.826Z,7.30
2019-01-17T15:27:08.821Z,7.30
2019-01-17T15:29:39.988Z,7.30
2019-01-17T15:32:08.837Z,7.20
2019-01-17T15:34:37.694Z,6.80
2019-01-17T15:37:15.724Z,6.60
2019-01-17T15:39:46.307Z,6.40
2019-01-17T15:42:36.655Z,6.30
2019-01-17T15:45:05.908Z,6.10
2019-01-17T15:47:34.738Z,5.80
2019-01-17T15:50:03.733Z,5.70
2019-01-17T15:55:16.557Z,5.70
2019-01-17T15:57:45.525Z,5.70
2019-01-17T16:00:31.770Z,5.50
2019-01-17T16:03:09.961Z,5.20
2019-01-17T16:05:39.052Z,4.90
2019-01-17T16:08:08.003Z,4.90
2019-01-17T16:10:36.810Z,4.90
2019-01-17T16:13:14.889Z,5.10
2019-01-17T16:15:43.851Z,5.10
2019-01-17T16:18:12.839Z,5.00
2019-01-17T16:20:41.534Z,5.10
2019-01-17T16:23:19.524Z,5.10
2019-01-17T16:25:48.976Z,5.20
2019-01-17T16:28:17.955Z,5.10
2019-01-17T16:30:46.897Z,5.10
2019-01-17T16:36:01.503Z,5.10
2019-01-17T16:38:30.690Z,5.00
2019-01-17T16:40:59.672Z,5.40
2019-01-17T16:43:28.709Z,5.50
2019-01-17T16:45:57.613Z,5.40
2019-01-17T16:48:26.568Z,5.50
2019-01-17T16:50:55.341Z,5.60
2019-01-17T16:53:33.310Z,5.50
2019-01-17T16:56:01.973Z,5.40
2019-01-17T16:58:30.849Z,5.30
2019-01-17T17:01:00.015Z,5.10
2019-01-17T17:03:38.137Z,4.90
2019-01-17T17:06:10.087Z,4.80
2019-01-17T17:08:38.899Z,4.60
2019-01-17T17:11:07.948Z,4.70
2019-01-17T17:13:45.705Z,4.60
2019-01-17T17:16:14.491Z,4.70
2019-01-17T17:18:43.325Z,4.80
2019-01-17T17:21:12.445Z,4.80
2019-01-17T17:23:50.534Z,4.90
2019-01-17T17:26:19.330Z,4.90
2019-01-17T17:28:48.062Z,5.00
2019-01-17T17:31:16.894Z,4.90
2019-01-17T17:34:06.896Z,4.70
2019-01-17T17:36:35.988Z,4.60
2019-01-17T17:39:07.729Z,4.50
2019-01-17T17:41:36.598Z,4.50
2019-01-17T17:44:16.642Z,4.60
2019-01-17T17:46:45.456Z,4.80
2019-01-17T17:49:14.330Z,4.70
2019-01-17T17:51:46.381Z,4.80
2019-01-17T17:54:24.598Z,4.90
2019-01-17T17:56:53.618Z,5.10
2019-01-17T17:59:22.964Z,5.10
2019-01-17T18:01:58.789Z,5.10
2019-01-17T18:04:36.620Z,5.20
2019-01-17T18:07:05.453Z,5.30
2019-01-17T18:09:34.164Z,5.20
2019-01-17T18:12:03.159Z,5.30
2019-01-17T18:14:41.068Z,5.40
2019-01-17T18:17:09.782Z,5.20
2019-01-17T18:19:47.708Z,4.90
2019-01-17T18:22:16.633Z,5.00
2019-01-17T18:24:45.457Z,5.00
2019-01-17T18:27:14.454Z,4.80
2019-01-17T18:29:43.295Z,4.30
2019-01-17T18:32:21.281Z,4.20
2019-01-17T18:34:50.156Z,4.00
2019-01-17T18:37:19.241Z,4.10
2019-01-17T18:39:48.148Z,4.30
2019-01-17T18:42:26.158Z,4.60
2019-01-17T18:44:54.827Z,4.50
2019-01-17T18:47:23.887Z,4.50
2019-01-17T18:49:52.664Z,4.50
2019-01-17T18:52:30.545Z,4.50
2019-01-17T18:54:59.419Z,4.70
2019-01-17T18:57:28.242Z,4.80
2019-01-17T18:59:57.559Z,4.90
2019-01-17T19:02:36.109Z,4.90
2019-01-17T19:05:05.464Z,5.00
2019-01-17T19:07:36.384Z,4.90
2019-01-17T19:10:05.320Z,5.10
2019-01-17T19:12:43.237Z,4.50
2019-01-17T19:15:14.796Z,4.20
2019-01-17T19:17:43.721Z,4.20
2019-01-17T19:20:14.128Z,4.20
2019-01-17T19:25:30.461Z,4.30
2019-01-17T19:27:59.591Z,4.00
2019-01-17T19:30:30.090Z,4.10
2019-01-17T19:33:08.924Z,4.20
2019-01-17T19:35:38.137Z,4.50
2019-01-17T19:38:07.149Z,4.70
2019-01-17T19:40:36.146Z,4.50
2019-01-17T19:43:14.043Z,4.50
2019-01-17T19:45:42.796Z,4.40
2019-01-17T19:48:11.580Z,4.20
2019-01-17T19:50:40.379Z,4.30
2019-01-17T19:53:18.525Z,4.20
2019-01-17T19:55:47.241Z,4.30
2019-01-17T19:58:16.016Z,4.20
2019-01-17T20:00:46.938Z,4.10
2019-01-17T20:03:24.820Z,4.20
2019-01-17T20:05:53.606Z,4.40
2019-01-17T20:08:22.440Z,4.70
2019-01-17T20:10:51.752Z,4.80
2019-01-17T20:13:31.701Z,4.90
2019-01-17T20:16:00.626Z,4.80
2019-01-17T20:18:29.644Z,4.70
2019-01-17T20:20:58.851Z,4.40
2019-01-17T20:23:36.737Z,4.30
2019-01-17T20:26:05.609Z,4.10
2019-01-17T20:28:35.818Z,4.10
2019-01-17T20:31:04.769Z,4.20
2019-01-17T20:33:42.852Z,4.30
2019-01-17T20:36:11.560Z,4.30
2019-01-17T20:38:40.261Z,4.40
2019-01-17T20:41:09.044Z,4.50
2019-01-17T20:43:47.117Z,4.60
2019-01-17T20:46:16.491Z,4.40
2019-01-17T20:48:54.467Z,4.40
2019-01-17T20:51:24.679Z,4.40
2019-01-17T20:53:53.593Z,4.30
2019-01-17T20:56:22.410Z,3.90
2019-01-17T20:59:00.638Z,4.10
2019-01-17T21:01:56.984Z,4.00
2019-01-17T21:04:36.350Z,3.60
2019-01-17T21:07:05.823Z,3.50
2019-01-17T21:09:34.650Z,4.00
2019-01-17T21:12:03.452Z,4.00
2019-01-17T21:17:16.487Z,3.90
2019-01-17T21:19:47.267Z,3.60
2019-01-17T21:22:16.098Z,3.70
2019-01-17T21:24:54.055Z,3.70
2019-01-17T21:27:22.948Z,3.40
2019-01-17T21:29:55.098Z,3.70
2019-01-17T21:32:24.605Z,3.90
2019-01-17T21:35:02.611Z,3.80
2019-01-17T21:37:31.500Z,3.80
2019-01-17T21:40:00.287Z,3.80
2019-01-17T21:42:32.110Z,3.80
2019-01-17T21:45:22.387Z,3.80
2019-01-17T21:47:51.410Z,3.80
2019-01-17T21:50:23.015Z,3.50
2019-01-17T21:52:52.026Z,3.60
2019-01-17T21:55:32.394Z,3.70
2019-01-17T21:58:01.411Z,3.50
2019-01-17T22:00:30.284Z,3.30
2019-01-17T22:02:59.576Z,3.30
2019-01-17T22:05:37.841Z,3.30
2019-01-17T22:08:07.881Z,3.50
2019-01-17T22:10:39.830Z,3.30
2019-01-17T22:13:08.511Z,3.70
2019-01-17T22:15:46.360Z,3.40
2019-01-17T22:18:16.030Z,3.60
2019-01-17T22:20:44.957Z,3.60
2019-01-17T22:23:16.192Z,3.70
2019-01-17T22:25:54.053Z,3.80
2019-01-17T22:28:24.920Z,3.70
2019-01-17T22:30:53.894Z,3.90
2019-01-17T22:33:36.184Z,3.70
2019-01-17T22:36:17.408Z,3.90
2019-01-17T22:38:46.305Z,3.80
2019-01-17T22:41:15.184Z,4.20
2019-01-17T22:43:53.587Z,3.90
2019-01-17T22:46:25.341Z,3.60
2019-01-17T22:48:54.094Z,3.90
2019-01-17T22:51:24.939Z,3.90
2019-01-17T22:54:02.949Z,3.90
2019-01-17T22:56:31.630Z,3.90
2019-01-17T22:59:00.372Z,3.80
2019-01-17T23:01:29.974Z,3.50
2019-01-17T23:04:07.964Z,3.60
2019-01-17T23:06:36.748Z,3.70
2019-01-17T23:09:08.421Z,3.60
2019-01-17T23:11:39.535Z,3.80
2019-01-17T23:14:17.563Z,3.60
2019-01-17T23:16:46.356Z,3.70
2019-01-17T23:19:27.885Z,3.50
2019-01-17T23:21:57.433Z,3.50
2019-01-17T23:24:35.338Z,3.60
2019-01-17T23:27:04.058Z,3.10
2019-01-17T23:29:32.750Z,3.00
2019-01-17T23:32:01.560Z,3.30
2019-01-17T23:34:39.484Z,3.40
2019-01-17T23:37:08.215Z,3.20
2019-01-17T23:39:36.893Z,3.20
2019-01-17T23:42:05.590Z,3.40
2019-01-17T23:44:43.547Z,3.50
2019-01-17T23:47:12.299Z,3.50
2019-01-17T23:49:41.086Z,3.30
2019-01-17T23:52:10.952Z,3.30
2019-01-17T23:54:51.267Z,3.30
2019-01-17T23:57:20.089Z,3.40
2019-01-17T23:59:48.880Z,3.30
